sensor_id;sensor_type;location;lat;lon;timestamp;pressure;altitude;pressure_sealevel;temperature;humidity
36932;BME280;22847;42.654;23.370;2022-12-18T00:01:31;95357.41;;;9.60;75.16
36932;BME280;22847;42.654;23.370;2022-12-18T00:03:59;95363.56;;;9.59;74.33
36932;BME280;22847;42.654;23.370;2022-12-18T00:06:26;95139.44;;;7.89;74.75
36932;BME280;22847;42.654;23.370;2022-12-18T00:08:55;95416.59;;;9.58;74.71
36932;BME280;22847;42.654;23.370;2022-12-18T00:11:23;95404.63;;;9.56;74.87
36932;BME280;22847;42.654;23.370;2022-12-18T00:13:49;95394.72;;;9.38;73.92
36932;BME280;22847;42.654;23.370;2022-12-18T00:16:17;95438.59;;;9.65;74.02
36932;BME280;22847;42.654;23.370;2022-12-18T00:18:47;95246.50;;;8.61;72.80
36932;BME280;22847;42.654;23.370;2022-12-18T00:21:13;95390.59;;;9.36;73.08
36932;BME280;22847;42.654;23.370;2022-12-18T00:23:40;95212.53;;;7.95;74.53
36932;BME280;22847;42.654;23.370;2022-12-18T00:26:10;95426.06;;;9.15;74.71
36932;BME280;22847;42.654;23.370;2022-12-18T00:28:35;95369.06;;;8.89;74.67
36932;BME280;22847;42.654;23.370;2022-12-18T00:31:07;95440.84;;;9.14;75.26
36932;BME280;22847;42.654;23.370;2022-12-18T00:33:33;95402.50;;;9.05;74.82
36932;BME280;22847;42.654;23.370;2022-12-18T00:38:34;95388.56;;;8.84;74.89
36932;BME280;22847;42.654;23.370;2022-12-18T00:41:00;95228.81;;;7.51;76.20
36932;BME280;22847;42.654;23.370;2022-12-18T00:43:26;95442.97;;;8.87;76.32
36932;BME280;22847;42.654;23.370;2022-12-18T00:45:52;95449.97;;;9.20;75.16
36932;BME280;22847;42.654;23.370;2022-12-18T00:48:17;95454.94;;;9.23;74.88
36932;BME280;22847;42.654;23.370;2022-12-18T00:50:43;95408.00;;;9.13;74.16
36932;BME280;22847;42.654;23.370;2022-12-18T00:53:11;95465.16;;;8.80;74.79
36932;BME280;22847;42.654;23.370;2022-12-18T00:55:39;95457.66;;;9.21;74.50
36932;BME280;22847;42.654;23.370;2022-12-18T00:58:04;95404.16;;;8.73;73.65
36932;BME280;22847;42.654;23.370;2022-12-18T01:00:29;95282.16;;;8.01;74.20
36932;BME280;22847;42.654;23.370;2022-12-18T01:02:55;95298.97;;;8.20;73.84
36932;BME280;22847;42.654;23.370;2022-12-18T01:05:20;95398.81;;;8.74;73.76
36932;BME280;22847;42.654;23.370;2022-12-18T01:07:46;95463.41;;;8.57;75.42
36932;BME280;22847;42.654;23.370;2022-12-18T01:10:12;95232.31;;;7.15;76.62
36932;BME280;22847;42.654;23.370;2022-12-18T01:12:38;95498.53;;;8.97;75.42
36932;BME280;22847;42.654;23.370;2022-12-18T01:15:05;95440.47;;;8.85;75.07
36932;BME280;22847;42.654;23.370;2022-12-18T01:17:32;95470.28;;;9.04;74.42
36932;BME280;22847;42.654;23.370;2022-12-18T01:19:57;95466.03;;;9.03;73.91
36932;BME280;22847;42.654;23.370;2022-12-18T01:22:23;95468.16;;;9.20;73.50
36932;BME280;22847;42.654;23.370;2022-12-18T01:24:48;95364.97;;;8.17;74.63
36932;BME280;22847;42.654;23.370;2022-12-18T01:27:14;95243.56;;;7.27;73.90
36932;BME280;22847;42.654;23.370;2022-12-18T01:29:39;95352.34;;;7.89;74.58
36932;BME280;22847;42.654;23.370;2022-12-18T01:32:04;95518.56;;;8.73;73.51
36932;BME280;22847;42.654;23.370;2022-12-18T01:34:30;95486.53;;;8.48;73.89
36932;BME280;22847;42.654;23.370;2022-12-18T01:36:56;95463.09;;;8.14;73.93
36932;BME280;22847;42.654;23.370;2022-12-18T01:39:22;95255.22;;;6.85;74.44
36932;BME280;22847;42.654;23.370;2022-12-18T01:41:47;95223.81;;;6.77;74.12
36932;BME280;22847;42.654;23.370;2022-12-18T01:49:46;95494.59;;;8.09;76.13
36932;BME280;22847;42.654;23.370;2022-12-18T01:52:11;95461.72;;;7.97;74.93
36932;BME280;22847;42.654;23.370;2022-12-18T01:54:37;95535.63;;;8.04;75.54
36932;BME280;22847;42.654;23.370;2022-12-18T01:57:03;95473.16;;;7.82;75.85
36932;BME280;22847;42.654;23.370;2022-12-18T01:59:30;95502.00;;;8.26;74.49
36932;BME280;22847;42.654;23.370;2022-12-18T02:01:56;95313.72;;;7.13;74.31
36932;BME280;22847;42.654;23.370;2022-12-18T02:04:24;95509.56;;;8.05;74.97
36932;BME280;22847;42.654;23.370;2022-12-18T02:06:55;95433.63;;;7.66;74.88
36932;BME280;22847;42.654;23.370;2022-12-18T02:10:16;95472.66;;;7.77;75.02
36932;BME280;22847;42.654;23.370;2022-12-18T02:12:24;95528.25;;;7.98;74.73
36932;BME280;22847;42.654;23.370;2022-12-18T02:15:13;95524.09;;;8.08;75.11
36932;BME280;22847;42.654;23.370;2022-12-18T02:17:54;95546.41;;;8.11;74.64
36932;BME280;22847;42.654;23.370;2022-12-18T02:20:28;95372.03;;;7.07;75.25
36932;BME280;22847;42.654;23.370;2022-12-18T02:28:31;95534.00;;;8.39;73.64
36932;BME280;22847;42.654;23.370;2022-12-18T02:31:01;95531.22;;;8.54;73.09
36932;BME280;22847;42.654;23.370;2022-12-18T02:33:29;95501.13;;;8.38;72.57
36932;BME280;22847;42.654;23.370;2022-12-18T02:35:57;95534.69;;;8.65;72.17
36932;BME280;22847;42.654;23.370;2022-12-18T02:38:25;95357.50;;;7.54;72.27
36932;BME280;22847;42.654;23.370;2022-12-18T02:40:51;95538.44;;;8.50;72.57
36932;BME280;22847;42.654;23.370;2022-12-18T02:43:18;95520.50;;;8.34;72.33
36932;BME280;22847;42.654;23.370;2022-12-18T02:45:52;95526.69;;;8.44;72.17
36932;BME280;22847;42.654;23.370;2022-12-18T02:48:31;95533.72;;;8.31;72.13
36932;BME280;22847;42.654;23.370;2022-12-18T02:51:29;95540.03;;;8.27;72.64
36932;BME280;22847;42.654;23.370;2022-12-18T02:54:05;95541.94;;;8.13;73.46
36932;BME280;22847;42.654;23.370;2022-12-18T02:56:45;95529.78;;;8.13;73.07
36932;BME280;22847;42.654;23.370;2022-12-18T02:59:15;95345.59;;;6.90;73.37
36932;BME280;22847;42.654;23.370;2022-12-18T03:01:55;95545.75;;;8.20;73.06
36932;BME280;22847;42.654;23.370;2022-12-18T03:06:56;95509.09;;;7.88;72.66
36932;BME280;22847;42.654;23.370;2022-12-18T03:09:35;95581.41;;;8.18;72.35
36932;BME280;22847;42.654;23.370;2022-12-18T03:12:09;95572.94;;;8.03;72.52
36932;BME280;22847;42.654;23.370;2022-12-18T03:15:02;95577.06;;;8.31;72.25
36932;BME280;22847;42.654;23.370;2022-12-18T03:17:31;95327.72;;;6.74;72.04
36932;BME280;22847;42.654;23.370;2022-12-18T03:20:04;95526.22;;;7.90;72.47
36932;BME280;22847;42.654;23.370;2022-12-18T03:22:32;95413.38;;;7.34;72.04
36932;BME280;22847;42.654;23.370;2022-12-18T03:25:02;95577.34;;;7.52;75.02
36932;BME280;22847;42.654;23.370;2022-12-18T03:27:30;95383.25;;;6.45;75.20
36932;BME280;22847;42.654;23.370;2022-12-18T03:30:03;95579.06;;;7.89;73.99
36932;BME280;22847;42.654;23.370;2022-12-18T03:32:38;95585.81;;;8.04;73.24
36932;BME280;22847;42.654;23.370;2022-12-18T03:35:07;95526.75;;;7.83;71.87
36932;BME280;22847;42.654;23.370;2022-12-18T03:37:34;95562.16;;;7.96;72.01
36932;BME280;22847;42.654;23.370;2022-12-18T03:40:00;95435.22;;;7.06;72.38
36932;BME280;22847;42.654;23.370;2022-12-18T03:42:29;95589.75;;;7.97;72.47
36932;BME280;22847;42.654;23.370;2022-12-18T03:45:02;95599.19;;;8.11;72.02
36932;BME280;22847;42.654;23.370;2022-12-18T03:47:39;95571.72;;;7.71;72.09
36932;BME280;22847;42.654;23.370;2022-12-18T03:50:13;95629.03;;;7.93;71.86
36932;BME280;22847;42.654;23.370;2022-12-18T03:55:35;95641.50;;;8.13;71.00
36932;BME280;22847;42.654;23.370;2022-12-18T03:58:02;95592.31;;;7.74;71.14
36932;BME280;22847;42.654;23.370;2022-12-18T04:00:30;95559.06;;;7.79;71.64
36932;BME280;22847;42.654;23.370;2022-12-18T04:02:57;95621.34;;;7.66;71.50
36932;BME280;22847;42.654;23.370;2022-12-18T04:05:26;95580.13;;;7.61;71.60
36932;BME280;22847;42.654;23.370;2022-12-18T04:07:53;95616.38;;;7.76;72.08
36932;BME280;22847;42.654;23.370;2022-12-18T04:10:19;95571.22;;;7.40;72.42
36932;BME280;22847;42.654;23.370;2022-12-18T04:12:45;95589.88;;;7.71;71.83
36932;BME280;22847;42.654;23.370;2022-12-18T04:15:12;95649.81;;;7.93;71.75
36932;BME280;22847;42.654;23.370;2022-12-18T04:17:38;95632.78;;;7.63;72.36
36932;BME280;22847;42.654;23.370;2022-12-18T04:20:08;95664.25;;;7.84;71.98
36932;BME280;22847;42.654;23.370;2022-12-18T04:22:33;95633.31;;;7.81;71.57
36932;BME280;22847;42.654;23.370;2022-12-18T04:24:59;95594.88;;;7.48;71.56
36932;BME280;22847;42.654;23.370;2022-12-18T04:27:24;95646.38;;;7.80;71.22
36932;BME280;22847;42.654;23.370;2022-12-18T04:29:49;95693.41;;;7.75;70.86
36932;BME280;22847;42.654;23.370;2022-12-18T04:32:15;95638.81;;;7.64;71.13
36932;BME280;22847;42.654;23.370;2022-12-18T04:34:40;95651.56;;;7.54;71.55
36932;BME280;22847;42.654;23.370;2022-12-18T04:37:05;95452.16;;;6.47;70.53
36932;BME280;22847;42.654;23.370;2022-12-18T04:39:31;95691.56;;;7.65;70.24
36932;BME280;22847;42.654;23.370;2022-12-18T04:41:59;95661.53;;;7.08;71.17
36932;BME280;22847;42.654;23.370;2022-12-18T04:44:25;95621.44;;;6.87;71.74
36932;BME280;22847;42.654;23.370;2022-12-18T04:46:50;95631.13;;;6.98;71.56
36932;BME280;22847;42.654;23.370;2022-12-18T04:49:16;95643.69;;;7.16;70.86
36932;BME280;22847;42.654;23.370;2022-12-18T04:51:41;95362.31;;;5.01;71.36
36932;BME280;22847;42.654;23.370;2022-12-18T04:54:06;95685.31;;;7.15;71.18
36932;BME280;22847;42.654;23.370;2022-12-18T04:56:32;95562.22;;;6.27;70.72
36932;BME280;22847;42.654;23.370;2022-12-18T04:58:57;95628.97;;;6.78;70.97
36932;BME280;22847;42.654;23.370;2022-12-18T05:01:23;95696.94;;;7.22;70.43
36932;BME280;22847;42.654;23.370;2022-12-18T05:03:48;95385.97;;;5.36;69.66
36932;BME280;22847;42.654;23.370;2022-12-18T05:06:14;95614.34;;;6.77;69.42
36932;BME280;22847;42.654;23.370;2022-12-18T05:08:39;95653.09;;;6.65;69.85
36932;BME280;22847;42.654;23.370;2022-12-18T05:11:08;95756.22;;;7.01;69.75
36932;BME280;22847;42.654;23.370;2022-12-18T05:13:34;95684.25;;;6.78;69.88
36932;BME280;22847;42.654;23.370;2022-12-18T05:16:00;95701.25;;;6.82;69.50
36932;BME280;22847;42.654;23.370;2022-12-18T05:18:26;95716.03;;;6.94;70.43
36932;BME280;22847;42.654;23.370;2022-12-18T05:20:52;95507.00;;;5.86;70.18
36932;BME280;22847;42.654;23.370;2022-12-18T05:23:19;95720.78;;;7.14;69.20
36932;BME280;22847;42.654;23.370;2022-12-18T05:25:55;95715.44;;;7.03;69.62
36932;BME280;22847;42.654;23.370;2022-12-18T05:28:23;95728.63;;;7.27;69.38
36932;BME280;22847;42.654;23.370;2022-12-18T05:30:50;95684.25;;;6.78;69.50
36932;BME280;22847;42.654;23.370;2022-12-18T05:33:16;95740.50;;;7.17;69.36
36932;BME280;22847;42.654;23.370;2022-12-18T05:35:42;95748.38;;;6.89;68.91
36932;BME280;22847;42.654;23.370;2022-12-18T05:38:08;95499.47;;;5.55;68.43
36932;BME280;22847;42.654;23.370;2022-12-18T05:40:33;95686.50;;;6.56;69.00
36932;BME280;22847;42.654;23.370;2022-12-18T05:42:58;95733.53;;;6.91;69.86
36932;BME280;22847;42.654;23.370;2022-12-18T05:45:24;95512.88;;;5.61;68.91
36932;BME280;22847;42.654;23.370;2022-12-18T05:47:49;95772.78;;;6.99;68.81
36932;BME280;22847;42.654;23.370;2022-12-18T05:50:15;95515.09;;;5.53;69.18
36932;BME280;22847;42.654;23.370;2022-12-18T05:52:40;95705.28;;;6.59;69.31
36932;BME280;22847;42.654;23.370;2022-12-18T05:55:06;95741.66;;;6.99;69.48
36932;BME280;22847;42.654;23.370;2022-12-18T05:57:31;95720.19;;;6.97;67.92
36932;BME280;22847;42.654;23.370;2022-12-18T05:59:56;95747.03;;;7.10;67.25
36932;BME280;22847;42.654;23.370;2022-12-18T06:02:22;95713.34;;;6.55;67.87
36932;BME280;22847;42.654;23.370;2022-12-18T06:04:48;95684.41;;;6.48;67.98
36932;BME280;22847;42.654;23.370;2022-12-18T06:07:13;95727.50;;;6.49;68.45
36932;BME280;22847;42.654;23.370;2022-12-18T06:09:39;95775.44;;;6.70;68.82
36932;BME280;22847;42.654;23.370;2022-12-18T06:12:04;95768.38;;;6.87;68.66
36932;BME280;22847;42.654;23.370;2022-12-18T06:14:30;95557.22;;;5.41;69.26
36932;BME280;22847;42.654;23.370;2022-12-18T06:16:55;95735.94;;;6.53;68.89
36932;BME280;22847;42.654;23.370;2022-12-18T06:19:21;95736.38;;;6.59;67.98
36932;BME280;22847;42.654;23.370;2022-12-18T06:21:46;95686.75;;;6.24;68.66
36932;BME280;22847;42.654;23.370;2022-12-18T06:24:12;95725.94;;;6.33;68.32
36932;BME280;22847;42.654;23.370;2022-12-18T06:26:38;95781.13;;;6.90;68.03
36932;BME280;22847;42.654;23.370;2022-12-18T06:29:04;95778.19;;;6.82;68.36
36932;BME280;22847;42.654;23.370;2022-12-18T06:31:30;95794.50;;;6.55;70.06
36932;BME280;22847;42.654;23.370;2022-12-18T06:33:55;95788.84;;;6.63;68.62
36932;BME280;22847;42.654;23.370;2022-12-18T06:36:20;95631.13;;;5.73;68.23
36932;BME280;22847;42.654;23.370;2022-12-18T06:38:46;95807.53;;;6.68;68.84
36932;BME280;22847;42.654;23.370;2022-12-18T06:41:20;95845.09;;;6.89;68.56
36932;BME280;22847;42.654;23.370;2022-12-18T06:43:45;95800.03;;;6.78;69.00
36932;BME280;22847;42.654;23.370;2022-12-18T06:46:11;95804.66;;;6.87;68.50
36932;BME280;22847;42.654;23.370;2022-12-18T06:48:37;95678.41;;;5.91;68.51
36932;BME280;22847;42.654;23.370;2022-12-18T06:51:03;95790.03;;;6.86;67.56
36932;BME280;22847;42.654;23.370;2022-12-18T06:53:29;95780.06;;;6.65;68.22
36932;BME280;22847;42.654;23.370;2022-12-18T06:58:46;95608.00;;;5.42;67.69
36932;BME280;22847;42.654;23.370;2022-12-18T07:01:12;95783.78;;;6.47;67.69
36932;BME280;22847;42.654;23.370;2022-12-18T07:03:39;95773.78;;;6.41;67.15
36932;BME280;22847;42.654;23.370;2022-12-18T07:06:05;95822.81;;;6.30;68.65
36932;BME280;22847;42.654;23.370;2022-12-18T07:08:31;95629.16;;;5.34;67.59
36932;BME280;22847;42.654;23.370;2022-12-18T07:10:57;95793.50;;;6.44;67.58
36932;BME280;22847;42.654;23.370;2022-12-18T07:13:22;95797.09;;;6.55;67.59
36932;BME280;22847;42.654;23.370;2022-12-18T07:15:48;95799.56;;;6.85;66.22
36932;BME280;22847;42.654;23.370;2022-12-18T07:18:13;95803.63;;;6.89;65.84
36932;BME280;22847;42.654;23.370;2022-12-18T07:20:39;95813.19;;;6.89;65.99
36932;BME280;22847;42.654;23.370;2022-12-18T07:23:04;95672.59;;;6.02;65.96
36932;BME280;22847;42.654;23.370;2022-12-18T07:25:33;95843.00;;;6.96;66.29
36932;BME280;22847;42.654;23.370;2022-12-18T07:27:59;95776.56;;;6.38;66.45
36932;BME280;22847;42.654;23.370;2022-12-18T07:30:24;95875.09;;;7.07;66.33
36932;BME280;22847;42.654;23.370;2022-12-18T07:32:50;95820.75;;;7.06;66.38
36932;BME280;22847;42.654;23.370;2022-12-18T07:35:15;95852.03;;;7.17;65.81
36932;BME280;22847;42.654;23.370;2022-12-18T07:37:41;95741.97;;;6.39;66.23
36932;BME280;22847;42.654;23.370;2022-12-18T07:40:07;95841.31;;;6.95;66.30
36932;BME280;22847;42.654;23.370;2022-12-18T07:42:32;95781.38;;;6.30;67.04
36932;BME280;22847;42.654;23.370;2022-12-18T07:44:59;95869.84;;;6.81;65.92
36932;BME280;22847;42.654;23.370;2022-12-18T07:47:25;95622.13;;;5.36;66.41
36932;BME280;22847;42.654;23.370;2022-12-18T07:49:50;95867.69;;;6.59;67.62
36932;BME280;22847;42.654;23.370;2022-12-18T07:52:16;95867.53;;;6.76;66.77
36932;BME280;22847;42.654;23.370;2022-12-18T07:54:41;95839.84;;;6.48;67.30
36932;BME280;22847;42.654;23.370;2022-12-18T07:57:07;95852.94;;;6.31;67.52
36932;BME280;22847;42.654;23.370;2022-12-18T07:59:33;95878.28;;;6.70;67.20
36932;BME280;22847;42.654;23.370;2022-12-18T08:01:59;95895.00;;;6.64;67.91
36932;BME280;22847;42.654;23.370;2022-12-18T08:04:25;95883.06;;;6.48;67.66
36932;BME280;22847;42.654;23.370;2022-12-18T08:06:50;95656.97;;;5.31;66.79
36932;BME280;22847;42.654;23.370;2022-12-18T08:09:16;95874.75;;;6.57;67.03
36932;BME280;22847;42.654;23.370;2022-12-18T08:11:41;95849.69;;;6.27;67.37
36932;BME280;22847;42.654;23.370;2022-12-18T08:14:07;95899.56;;;6.61;67.33
36932;BME280;22847;42.654;23.370;2022-12-18T08:16:32;95892.50;;;6.63;66.59
36932;BME280;22847;42.654;23.370;2022-12-18T08:18:58;95783.34;;;5.97;66.79
36932;BME280;22847;42.654;23.370;2022-12-18T08:21:26;95835.50;;;6.05;67.80
36932;BME280;22847;42.654;23.370;2022-12-18T08:23:53;95751.59;;;5.63;66.83
36932;BME280;22847;42.654;23.370;2022-12-18T08:26:20;95875.16;;;6.21;66.81
36932;BME280;22847;42.654;23.370;2022-12-18T08:28:45;95925.88;;;6.53;67.13
36932;BME280;22847;42.654;23.370;2022-12-18T08:31:11;95897.81;;;6.32;66.81
36932;BME280;22847;42.654;23.370;2022-12-18T08:33:38;95898.69;;;6.46;66.37
36932;BME280;22847;42.654;23.370;2022-12-18T08:36:04;95887.16;;;6.22;66.92
36932;BME280;22847;42.654;23.370;2022-12-18T08:38:30;95880.59;;;6.16;66.81
36932;BME280;22847;42.654;23.370;2022-12-18T08:41:00;95904.34;;;6.53;66.34
36932;BME280;22847;42.654;23.370;2022-12-18T08:43:26;95756.41;;;5.55;66.60
36932;BME280;22847;42.654;23.370;2022-12-18T08:46:11;95951.38;;;6.61;66.69
36932;BME280;22847;42.654;23.370;2022-12-18T08:48:37;95836.84;;;5.66;67.34
36932;BME280;22847;42.654;23.370;2022-12-18T08:51:02;95835.69;;;5.86;66.93
36932;BME280;22847;42.654;23.370;2022-12-18T08:53:28;95918.78;;;6.27;66.73
36932;BME280;22847;42.654;23.370;2022-12-18T08:55:55;95767.56;;;5.26;66.51
36932;BME280;22847;42.654;23.370;2022-12-18T08:58:21;95936.81;;;6.58;66.31
36932;BME280;22847;42.654;23.370;2022-12-18T09:00:46;95999.63;;;6.78;67.86
36932;BME280;22847;42.654;23.370;2022-12-18T09:03:16;95917.19;;;6.54;66.20
36932;BME280;22847;42.654;23.370;2022-12-18T09:05:42;95925.22;;;6.80;65.55
36932;BME280;22847;42.654;23.370;2022-12-18T09:08:08;95979.44;;;6.68;64.31
36932;BME280;22847;42.654;23.370;2022-12-18T09:10:40;95787.22;;;5.90;64.28
36932;BME280;22847;42.654;23.370;2022-12-18T09:13:06;95935.31;;;6.84;63.58
36932;BME280;22847;42.654;23.370;2022-12-18T09:15:31;95896.22;;;6.73;63.50
36932;BME280;22847;42.654;23.370;2022-12-18T09:17:57;95876.50;;;6.85;63.23
36932;BME280;22847;42.654;23.370;2022-12-18T09:20:22;95927.16;;;7.04;63.97
36932;BME280;22847;42.654;23.370;2022-12-18T09:22:48;95896.31;;;6.71;64.40
36932;BME280;22847;42.654;23.370;2022-12-18T09:25:13;95704.22;;;5.63;64.32
36932;BME280;22847;42.654;23.370;2022-12-18T09:27:39;95952.09;;;6.93;64.29
36932;BME280;22847;42.654;23.370;2022-12-18T09:30:05;95931.50;;;6.90;64.26
36932;BME280;22847;42.654;23.370;2022-12-18T09:32:30;95889.44;;;6.42;64.50
36932;BME280;22847;42.654;23.370;2022-12-18T09:34:56;95938.00;;;6.83;64.32
36932;BME280;22847;42.654;23.370;2022-12-18T09:37:22;95937.72;;;6.87;63.73
36932;BME280;22847;42.654;23.370;2022-12-18T09:39:48;95733.53;;;5.77;62.70
36932;BME280;22847;42.654;23.370;2022-12-18T09:42:21;95946.50;;;6.85;62.55
36932;BME280;22847;42.654;23.370;2022-12-18T09:44:55;95943.75;;;7.02;62.28
36932;BME280;22847;42.654;23.370;2022-12-18T09:47:28;95949.72;;;6.74;62.45
36932;BME280;22847;42.654;23.370;2022-12-18T09:49:59;95939.94;;;6.93;63.47
36932;BME280;22847;42.654;23.370;2022-12-18T09:52:48;95933.91;;;6.79;62.56
36932;BME280;22847;42.654;23.370;2022-12-18T09:55:29;95727.09;;;5.84;63.67
36932;BME280;22847;42.654;23.370;2022-12-18T09:58:48;95922.25;;;7.14;62.54
36932;BME280;22847;42.654;23.370;2022-12-18T10:00:51;95788.31;;;6.44;60.91
36932;BME280;22847;42.654;23.370;2022-12-18T10:03:17;95899.00;;;7.12;62.17
36932;BME280;22847;42.654;23.370;2022-12-18T10:09:09;95935.03;;;7.03;61.41
36932;BME280;22847;42.654;23.370;2022-12-18T10:14:35;95939.78;;;7.10;61.52
36932;BME280;22847;42.654;23.370;2022-12-18T10:19:51;95718.38;;;5.85;60.14
36932;BME280;22847;42.654;23.370;2022-12-18T10:22:26;95939.09;;;7.35;60.52
36932;BME280;22847;42.654;23.370;2022-12-18T10:25:10;95934.47;;;7.26;60.90
36932;BME280;22847;42.654;23.370;2022-12-18T10:27:40;95872.44;;;6.95;61.01
36932;BME280;22847;42.654;23.370;2022-12-18T10:30:17;95718.84;;;6.08;61.94
36932;BME280;22847;42.654;23.370;2022-12-18T10:32:42;95936.63;;;7.34;60.52
36932;BME280;22847;42.654;23.370;2022-12-18T10:35:22;95723.63;;;6.14;59.18
36932;BME280;22847;42.654;23.370;2022-12-18T10:38:02;95970.44;;;7.32;60.37
36932;BME280;22847;42.654;23.370;2022-12-18T10:40:28;95947.09;;;7.32;59.85
36932;BME280;22847;42.654;23.370;2022-12-18T10:43:05;95762.28;;;6.45;60.23
36932;BME280;22847;42.654;23.370;2022-12-18T10:45:31;95804.13;;;6.39;60.71
36932;BME280;22847;42.654;23.370;2022-12-18T10:47:56;95886.88;;;6.99;61.38
36932;BME280;22847;42.654;23.370;2022-12-18T10:53:00;95923.19;;;7.27;61.46
36932;BME280;22847;42.654;23.370;2022-12-18T10:55:45;95938.66;;;7.43;61.03
36932;BME280;22847;42.654;23.370;2022-12-18T10:58:31;95932.66;;;7.69;59.77
36932;BME280;22847;42.654;23.370;2022-12-18T11:01:10;95679.03;;;5.95;61.12
36932;BME280;22847;42.654;23.370;2022-12-18T11:06:03;95927.94;;;7.61;60.42
36932;BME280;22847;42.654;23.370;2022-12-18T11:08:29;95935.72;;;7.61;59.37
36932;BME280;22847;42.654;23.370;2022-12-18T11:10:55;95902.22;;;7.16;59.47
36932;BME280;22847;42.654;23.370;2022-12-18T11:13:22;95923.09;;;7.29;59.48
36932;BME280;22847;42.654;23.370;2022-12-18T11:15:48;95940.63;;;7.66;59.45
36932;BME280;22847;42.654;23.370;2022-12-18T11:18:22;95926.47;;;7.57;59.08
36932;BME280;22847;42.654;23.370;2022-12-18T11:20:55;95768.59;;;6.55;58.87
36932;BME280;22847;42.654;23.370;2022-12-18T11:23:22;95727.06;;;6.14;58.92
36932;BME280;22847;42.654;23.370;2022-12-18T11:26:00;95950.41;;;7.48;58.73
36932;BME280;22847;42.654;23.370;2022-12-18T11:28:49;95973.09;;;7.59;57.80
36932;BME280;22847;42.654;23.370;2022-12-18T11:31:20;95745.56;;;6.37;57.75
36932;BME280;22847;42.654;23.370;2022-12-18T11:34:09;95936.84;;;7.57;57.61
36932;BME280;22847;42.654;23.370;2022-12-18T11:36:43;95782.53;;;6.10;58.72
36932;BME280;22847;42.654;23.370;2022-12-18T11:39:29;95941.13;;;7.30;60.04
36932;BME280;22847;42.654;23.370;2022-12-18T11:42:00;95853.34;;;6.82;59.31
36932;BME280;22847;42.654;23.370;2022-12-18T11:53:02;95935.78;;;7.33;58.08
36932;BME280;22847;42.654;23.370;2022-12-18T11:56:05;95813.56;;;6.68;58.33
36932;BME280;22847;42.654;23.370;2022-12-18T12:01:53;95758.41;;;6.38;57.68
36932;BME280;22847;42.654;23.370;2022-12-18T12:04:25;95933.00;;;7.36;57.60
36932;BME280;22847;42.654;23.370;2022-12-18T12:14:54;95791.19;;;6.39;58.15
36932;BME280;22847;42.654;23.370;2022-12-18T12:17:43;95945.19;;;7.48;57.90
36932;BME280;22847;42.654;23.370;2022-12-18T12:20:18;95957.47;;;7.46;57.65
36932;BME280;22847;42.654;23.370;2022-12-18T12:28:15;95948.53;;;7.65;57.71
36932;BME280;22847;42.654;23.370;2022-12-18T12:39:15;95945.72;;;7.68;57.84
36932;BME280;22847;42.654;23.370;2022-12-18T12:41:44;95968.72;;;7.74;57.39
36932;BME280;22847;42.654;23.370;2022-12-18T12:44:43;95940.47;;;7.69;58.72
36932;BME280;22847;42.654;23.370;2022-12-18T12:47:16;95943.31;;;7.79;58.94
36932;BME280;22847;42.654;23.370;2022-12-18T12:49:47;95921.34;;;7.70;59.26
36932;BME280;22847;42.654;23.370;2022-12-18T12:52:44;95953.13;;;7.88;58.79
36932;BME280;22847;42.654;23.370;2022-12-18T12:55:36;95958.47;;;7.99;58.50
36932;BME280;22847;42.654;23.370;2022-12-18T12:58:17;95983.28;;;7.76;58.55
36932;BME280;22847;42.654;23.370;2022-12-18T13:01:32;95957.19;;;7.37;60.00
36932;BME280;22847;42.654;23.370;2022-12-18T13:15:48;95983.84;;;7.53;59.09
36932;BME280;22847;42.654;23.370;2022-12-18T13:18:18;95981.03;;;7.70;58.91
36932;BME280;22847;42.654;23.370;2022-12-18T13:23:28;95800.97;;;6.62;58.54
36932;BME280;22847;42.654;23.370;2022-12-18T13:36:40;95977.63;;;7.70;57.78
36932;BME280;22847;42.654;23.370;2022-12-18T13:39:22;95971.44;;;7.58;57.58
36932;BME280;22847;42.654;23.370;2022-12-18T13:41:51;95960.63;;;7.37;58.33
36932;BME280;22847;42.654;23.370;2022-12-18T13:46:47;96021.09;;;7.66;58.22
36932;BME280;22847;42.654;23.370;2022-12-18T13:51:47;95928.38;;;7.13;58.87
36932;BME280;22847;42.654;23.370;2022-12-18T13:56:44;95986.22;;;6.85;60.36
36932;BME280;22847;42.654;23.370;2022-12-18T14:01:54;96015.09;;;7.51;60.35
36932;BME280;22847;42.654;23.370;2022-12-18T14:04:31;95812.88;;;6.22;59.78
36932;BME280;22847;42.654;23.370;2022-12-18T14:07:09;96042.72;;;7.67;58.99
36932;BME280;22847;42.654;23.370;2022-12-18T14:09:40;95822.66;;;6.61;58.28
36932;BME280;22847;42.654;23.370;2022-12-18T14:12:18;96042.13;;;8.04;57.59
36932;BME280;22847;42.654;23.370;2022-12-18T14:15:31;96005.41;;;7.96;57.96
36932;BME280;22847;42.654;23.370;2022-12-18T14:17:58;96031.38;;;7.96;57.69
36932;BME280;22847;42.654;23.370;2022-12-18T14:20:27;96044.38;;;7.82;57.70
36932;BME280;22847;42.654;23.370;2022-12-18T14:22:57;96097.22;;;7.67;57.87
36932;BME280;22847;42.654;23.370;2022-12-18T14:25:25;96051.88;;;7.44;57.52
36932;BME280;22847;42.654;23.370;2022-12-18T14:30:36;95870.22;;;6.16;59.25
36932;BME280;22847;42.654;23.370;2022-12-18T14:35:35;96036.91;;;7.05;57.53
36932;BME280;22847;42.654;23.370;2022-12-18T14:40:36;96045.34;;;7.08;61.43
36932;BME280;22847;42.654;23.370;2022-12-18T14:43:02;96072.88;;;7.11;57.84
36932;BME280;22847;42.654;23.370;2022-12-18T14:45:42;96025.41;;;6.95;56.48
36932;BME280;22847;42.654;23.370;2022-12-18T14:48:20;95910.63;;;6.63;56.87
36932;BME280;22847;42.654;23.370;2022-12-18T14:50:55;96038.19;;;7.56;56.66
36932;BME280;22847;42.654;23.370;2022-12-18T14:55:56;96036.72;;;7.52;54.68
36932;BME280;22847;42.654;23.370;2022-12-18T14:58:22;96043.38;;;7.42;55.62
36932;BME280;22847;42.654;23.370;2022-12-18T15:00:47;95854.16;;;6.25;55.18
36932;BME280;22847;42.654;23.370;2022-12-18T15:03:18;96043.16;;;7.31;55.20
36932;BME280;22847;42.654;23.370;2022-12-18T15:05:44;95818.56;;;6.43;53.92
36932;BME280;22847;42.654;23.370;2022-12-18T15:08:36;96059.94;;;7.53;54.33